sensor_id;sensor_type;location;lat;lon;timestamp;P1;durP1;ratioP1;P2;durP2;ratioP2
72791;SDS011;60907;53.268;8.764;2023-05-17T00:02:12;10.38;;;3.00;;
72791;SDS011;60907;53.268;8.764;2023-05-17T00:04:37;9.32;;;2.00;;
72791;SDS011;60907;53.268;8.764;2023-05-17T00:07:02;9.60;;;2.17;;
72791;SDS011;60907;53.268;8.764;2023-05-17T00:09:28;9.02;;;1.73;;
72791;SDS011;60907;53.268;8.764;2023-05-17T00:11:53;10.45;;;2.10;;
72791;SDS011;60907;53.268;8.764;2023-05-17T00:14:19;8.32;;;1.98;;
72791;SDS011;60907;53.268;8.764;2023-05-17T00:16:44;6.47;;;1.42;;
72791;SDS011;60907;53.268;8.764;2023-05-17T00:19:10;10.25;;;2.13;;
72791;SDS011;60907;53.268;8.764;2023-05-17T00:21:35;11.90;;;2.50;;
72791;SDS011;60907;53.268;8.764;2023-05-17T00:24:00;6.88;;;1.80;;
72791;SDS011;60907;53.268;8.764;2023-05-17T00:26:26;14.77;;;2.75;;
72791;SDS011;60907;53.268;8.764;2023-05-17T00:28:51;7.78;;;1.65;;
72791;SDS011;60907;53.268;8.764;2023-05-17T00:31:17;13.00;;;1.95;;
72791;SDS011;60907;53.268;8.764;2023-05-17T00:33:42;14.98;;;2.83;;
72791;SDS011;60907;53.268;8.764;2023-05-17T00:36:07;6.13;;;1.90;;
72791;SDS011;60907;53.268;8.764;2023-05-17T00:38:33;11.30;;;1.80;;
72791;SDS011;60907;53.268;8.764;2023-05-17T00:40:58;12.13;;;1.35;;
72791;SDS011;60907;53.268;8.764;2023-05-17T00:43:23;6.97;;;1.23;;
72791;SDS011;60907;53.268;8.764;2023-05-17T00:45:50;12.27;;;2.03;;
72791;SDS011;60907;53.268;8.764;2023-05-17T00:48:16;13.02;;;1.75;;
72791;SDS011;60907;53.268;8.764;2023-05-17T00:50:41;6.85;;;1.80;;
72791;SDS011;60907;53.268;8.764;2023-05-17T00:53:07;10.38;;;2.00;;
72791;SDS011;60907;53.268;8.764;2023-05-17T00:55:33;9.73;;;1.55;;
72791;SDS011;60907;53.268;8.764;2023-05-17T00:57:58;9.25;;;1.88;;
72791;SDS011;60907;53.268;8.764;2023-05-17T01:00:25;8.45;;;1.30;;
72791;SDS011;60907;53.268;8.764;2023-05-17T01:02:50;13.57;;;1.80;;
72791;SDS011;60907;53.268;8.764;2023-05-17T01:05:16;8.90;;;1.63;;
72791;SDS011;60907;53.268;8.764;2023-05-17T01:07:41;10.50;;;2.17;;
72791;SDS011;60907;53.268;8.764;2023-05-17T01:10:06;9.33;;;2.10;;
72791;SDS011;60907;53.268;8.764;2023-05-17T01:15:47;6.15;;;1.52;;
72791;SDS011;60907;53.268;8.764;2023-05-17T01:18:55;8.52;;;1.67;;
72791;SDS011;60907;53.268;8.764;2023-05-17T01:27:48;10.18;;;1.60;;
72791;SDS011;60907;53.268;8.764;2023-05-17T01:30:14;8.50;;;1.63;;
72791;SDS011;60907;53.268;8.764;2023-05-17T01:35:07;6.67;;;1.40;;
72791;SDS011;60907;53.268;8.764;2023-05-17T01:37:34;11.73;;;1.92;;
72791;SDS011;60907;53.268;8.764;2023-05-17T01:40:00;7.35;;;1.35;;
72791;SDS011;60907;53.268;8.764;2023-05-17T01:42:30;7.15;;;1.73;;
72791;SDS011;60907;53.268;8.764;2023-05-17T01:50:07;12.95;;;1.95;;
72791;SDS011;60907;53.268;8.764;2023-05-17T01:52:36;15.88;;;1.95;;
72791;SDS011;60907;53.268;8.764;2023-05-17T01:58:07;9.13;;;1.58;;
72791;SDS011;60907;53.268;8.764;2023-05-17T02:00:33;11.43;;;1.90;;
72791;SDS011;60907;53.268;8.764;2023-05-17T02:02:58;10.82;;;2.03;;
72791;SDS011;60907;53.268;8.764;2023-05-17T02:05:24;8.35;;;1.95;;
72791;SDS011;60907;53.268;8.764;2023-05-17T02:07:49;6.22;;;1.55;;
72791;SDS011;60907;53.268;8.764;2023-05-17T02:10:15;8.93;;;2.20;;
72791;SDS011;60907;53.268;8.764;2023-05-17T02:12:40;10.30;;;1.77;;
72791;SDS011;60907;53.268;8.764;2023-05-17T02:15:06;10.95;;;2.00;;
72791;SDS011;60907;53.268;8.764;2023-05-17T02:17:35;11.27;;;1.67;;
72791;SDS011;60907;53.268;8.764;2023-05-17T02:20:00;11.25;;;1.77;;
72791;SDS011;60907;53.268;8.764;2023-05-17T02:22:26;13.90;;;2.05;;
72791;SDS011;60907;53.268;8.764;2023-05-17T02:24:51;13.97;;;2.20;;
72791;SDS011;60907;53.268;8.764;2023-05-17T02:27:16;6.37;;;1.17;;
72791;SDS011;60907;53.268;8.764;2023-05-17T02:29:42;10.27;;;1.40;;
72791;SDS011;60907;53.268;8.764;2023-05-17T02:32:07;7.05;;;1.13;;
72791;SDS011;60907;53.268;8.764;2023-05-17T02:34:32;8.63;;;1.70;;
72791;SDS011;60907;53.268;8.764;2023-05-17T02:36:58;5.32;;;1.25;;
72791;SDS011;60907;53.268;8.764;2023-05-17T02:39:23;6.05;;;0.93;;
72791;SDS011;60907;53.268;8.764;2023-05-17T02:41:49;11.70;;;1.33;;
72791;SDS011;60907;53.268;8.764;2023-05-17T02:44:14;9.23;;;1.10;;
72791;SDS011;60907;53.268;8.764;2023-05-17T02:46:39;5.97;;;0.87;;
72791;SDS011;60907;53.268;8.764;2023-05-17T02:49:05;6.33;;;1.17;;
72791;SDS011;60907;53.268;8.764;2023-05-17T02:51:30;9.13;;;1.47;;
72791;SDS011;60907;53.268;8.764;2023-05-17T02:53:55;10.70;;;1.08;;
72791;SDS011;60907;53.268;8.764;2023-05-17T02:56:21;8.53;;;1.13;;
72791;SDS011;60907;53.268;8.764;2023-05-17T02:58:46;8.38;;;0.95;;
72791;SDS011;60907;53.268;8.764;2023-05-17T03:01:12;7.28;;;1.30;;
72791;SDS011;60907;53.268;8.764;2023-05-17T03:03:37;4.47;;;0.80;;
72791;SDS011;60907;53.268;8.764;2023-05-17T03:06:03;4.47;;;1.25;;
72791;SDS011;60907;53.268;8.764;2023-05-17T03:08:29;8.80;;;1.13;;
72791;SDS011;60907;53.268;8.764;2023-05-17T03:10:55;7.50;;;1.15;;
72791;SDS011;60907;53.268;8.764;2023-05-17T03:13:20;4.90;;;1.08;;
72791;SDS011;60907;53.268;8.764;2023-05-17T03:15:46;6.78;;;1.20;;
72791;SDS011;60907;53.268;8.764;2023-05-17T03:18:11;6.55;;;1.13;;
72791;SDS011;60907;53.268;8.764;2023-05-17T03:20:37;5.32;;;1.08;;
72791;SDS011;60907;53.268;8.764;2023-05-17T03:23:02;6.00;;;0.93;;
72791;SDS011;60907;53.268;8.764;2023-05-17T03:25:28;6.50;;;0.98;;
72791;SDS011;60907;53.268;8.764;2023-05-17T03:27:53;6.60;;;0.82;;
72791;SDS011;60907;53.268;8.764;2023-05-17T03:30:18;9.35;;;1.15;;
72791;SDS011;60907;53.268;8.764;2023-05-17T03:32:44;8.20;;;1.27;;
72791;SDS011;60907;53.268;8.764;2023-05-17T03:35:10;4.78;;;0.90;;
72791;SDS011;60907;53.268;8.764;2023-05-17T03:37:35;6.40;;;0.82;;
72791;SDS011;60907;53.268;8.764;2023-05-17T03:40:01;5.82;;;0.73;;
72791;SDS011;60907;53.268;8.764;2023-05-17T03:42:27;9.70;;;0.60;;
72791;SDS011;60907;53.268;8.764;2023-05-17T03:44:52;3.88;;;0.90;;
72791;SDS011;60907;53.268;8.764;2023-05-17T03:47:18;10.60;;;0.90;;
72791;SDS011;60907;53.268;8.764;2023-05-17T03:49:43;6.82;;;0.70;;
72791;SDS011;60907;53.268;8.764;2023-05-17T03:52:09;5.63;;;1.10;;
72791;SDS011;60907;53.268;8.764;2023-05-17T03:54:34;6.55;;;1.10;;
72791;SDS011;60907;53.268;8.764;2023-05-17T03:57:02;4.45;;;0.73;;
72791;SDS011;60907;53.268;8.764;2023-05-17T03:59:28;4.32;;;1.02;;
72791;SDS011;60907;53.268;8.764;2023-05-17T04:01:53;9.95;;;0.80;;
72791;SDS011;60907;53.268;8.764;2023-05-17T04:04:19;4.88;;;0.50;;
72791;SDS011;60907;53.268;8.764;2023-05-17T04:06:44;10.60;;;0.68;;
72791;SDS011;60907;53.268;8.764;2023-05-17T04:09:10;5.82;;;0.70;;
72791;SDS011;60907;53.268;8.764;2023-05-17T04:11:40;6.30;;;0.90;;
72791;SDS011;60907;53.268;8.764;2023-05-17T04:14:07;9.57;;;1.05;;
72791;SDS011;60907;53.268;8.764;2023-05-17T04:16:32;3.95;;;0.63;;
72791;SDS011;60907;53.268;8.764;2023-05-17T04:19:01;5.65;;;0.70;;
72791;SDS011;60907;53.268;8.764;2023-05-17T04:21:27;2.88;;;0.60;;
72791;SDS011;60907;53.268;8.764;2023-05-17T04:23:52;5.00;;;0.22;;
72791;SDS011;60907;53.268;8.764;2023-05-17T04:26:18;4.57;;;0.65;;
72791;SDS011;60907;53.268;8.764;2023-05-17T04:28:43;4.97;;;0.50;;
72791;SDS011;60907;53.268;8.764;2023-05-17T04:31:09;4.30;;;0.60;;
72791;SDS011;60907;53.268;8.764;2023-05-17T04:33:35;5.00;;;0.90;;
72791;SDS011;60907;53.268;8.764;2023-05-17T04:36:01;8.00;;;0.95;;
72791;SDS011;60907;53.268;8.764;2023-05-17T04:38:27;4.78;;;0.73;;
72791;SDS011;60907;53.268;8.764;2023-05-17T04:40:52;2.95;;;0.57;;
72791;SDS011;60907;53.268;8.764;2023-05-17T04:43:20;10.30;;;1.45;;
72791;SDS011;60907;53.268;8.764;2023-05-17T04:45:46;8.38;;;1.10;;
72791;SDS011;60907;53.268;8.764;2023-05-17T04:48:11;3.70;;;0.55;;
72791;SDS011;60907;53.268;8.764;2023-05-17T04:50:37;5.55;;;0.70;;
72791;SDS011;60907;53.268;8.764;2023-05-17T04:53:02;6.53;;;0.88;;
72791;SDS011;60907;53.268;8.764;2023-05-17T04:55:28;4.53;;;0.60;;
72791;SDS011;60907;53.268;8.764;2023-05-17T04:57:53;8.48;;;0.90;;
72791;SDS011;60907;53.268;8.764;2023-05-17T05:00:19;5.40;;;1.10;;
72791;SDS011;60907;53.268;8.764;2023-05-17T05:02:46;7.32;;;1.15;;
72791;SDS011;60907;53.268;8.764;2023-05-17T05:05:12;4.47;;;0.75;;
72791;SDS011;60907;53.268;8.764;2023-05-17T05:07:37;5.53;;;0.80;;
72791;SDS011;60907;53.268;8.764;2023-05-17T05:10:04;7.65;;;1.20;;
72791;SDS011;60907;53.268;8.764;2023-05-17T05:12:30;5.32;;;1.30;;
72791;SDS011;60907;53.268;8.764;2023-05-17T05:14:55;5.80;;;0.55;;
72791;SDS011;60907;53.268;8.764;2023-05-17T05:17:21;7.68;;;1.05;;
72791;SDS011;60907;53.268;8.764;2023-05-17T05:19:46;5.75;;;1.00;;
72791;SDS011;60907;53.268;8.764;2023-05-17T05:22:12;6.50;;;1.08;;
72791;SDS011;60907;53.268;8.764;2023-05-17T05:24:37;8.23;;;1.20;;
72791;SDS011;60907;53.268;8.764;2023-05-17T05:27:03;7.55;;;1.70;;
72791;SDS011;60907;53.268;8.764;2023-05-17T05:29:28;6.97;;;1.85;;
72791;SDS011;60907;53.268;8.764;2023-05-17T05:31:54;7.50;;;0.82;;
72791;SDS011;60907;53.268;8.764;2023-05-17T05:34:19;7.65;;;1.10;;
72791;SDS011;60907;53.268;8.764;2023-05-17T05:36:45;9.38;;;1.48;;
72791;SDS011;60907;53.268;8.764;2023-05-17T05:39:11;4.65;;;1.33;;
72791;SDS011;60907;53.268;8.764;2023-05-17T05:41:36;5.95;;;1.10;;
72791;SDS011;60907;53.268;8.764;2023-05-17T05:44:02;6.63;;;1.00;;
72791;SDS011;60907;53.268;8.764;2023-05-17T05:46:27;8.07;;;1.10;;
72791;SDS011;60907;53.268;8.764;2023-05-17T05:48:53;15.98;;;1.33;;
72791;SDS011;60907;53.268;8.764;2023-05-17T05:51:18;8.80;;;1.63;;
72791;SDS011;60907;53.268;8.764;2023-05-17T05:53:43;11.07;;;1.42;;
72791;SDS011;60907;53.268;8.764;2023-05-17T05:56:09;11.10;;;1.20;;
72791;SDS011;60907;53.268;8.764;2023-05-17T05:58:35;6.45;;;1.30;;
72791;SDS011;60907;53.268;8.764;2023-05-17T06:01:00;4.72;;;1.20;;
72791;SDS011;60907;53.268;8.764;2023-05-17T06:03:25;7.03;;;0.98;;
72791;SDS011;60907;53.268;8.764;2023-05-17T06:05:51;7.45;;;1.17;;
72791;SDS011;60907;53.268;8.764;2023-05-17T06:08:16;9.27;;;1.10;;
72791;SDS011;60907;53.268;8.764;2023-05-17T06:10:42;5.25;;;1.45;;
72791;SDS011;60907;53.268;8.764;2023-05-17T06:13:07;7.35;;;0.90;;
72791;SDS011;60907;53.268;8.764;2023-05-17T06:15:33;8.38;;;0.70;;
72791;SDS011;60907;53.268;8.764;2023-05-17T06:17:58;5.20;;;1.02;;
72791;SDS011;60907;53.268;8.764;2023-05-17T06:20:24;5.65;;;0.80;;
72791;SDS011;60907;53.268;8.764;2023-05-17T06:22:49;4.75;;;1.00;;
72791;SDS011;60907;53.268;8.764;2023-05-17T06:25:14;9.32;;;1.20;;
72791;SDS011;60907;53.268;8.764;2023-05-17T06:27:41;10.52;;;1.13;;
72791;SDS011;60907;53.268;8.764;2023-05-17T06:30:07;6.43;;;1.15;;
72791;SDS011;60907;53.268;8.764;2023-05-17T06:32:32;8.48;;;1.05;;
72791;SDS011;60907;53.268;8.764;2023-05-17T06:34:58;6.97;;;0.82;;
72791;SDS011;60907;53.268;8.764;2023-05-17T06:37:24;6.40;;;1.20;;
72791;SDS011;60907;53.268;8.764;2023-05-17T06:39:50;8.38;;;1.15;;
72791;SDS011;60907;53.268;8.764;2023-05-17T06:42:16;5.45;;;0.93;;
72791;SDS011;60907;53.268;8.764;2023-05-17T06:44:42;5.30;;;0.82;;
72791;SDS011;60907;53.268;8.764;2023-05-17T06:47:07;5.90;;;1.25;;
72791;SDS011;60907;53.268;8.764;2023-05-17T06:49:33;9.27;;;1.83;;
72791;SDS011;60907;53.268;8.764;2023-05-17T06:51:58;6.05;;;1.23;;
72791;SDS011;60907;53.268;8.764;2023-05-17T06:54:27;4.60;;;0.93;;
72791;SDS011;60907;53.268;8.764;2023-05-17T06:56:54;6.40;;;0.70;;
72791;SDS011;60907;53.268;8.764;2023-05-17T06:59:23;7.35;;;1.17;;
72791;SDS011;60907;53.268;8.764;2023-05-17T07:01:48;6.95;;;1.58;;
72791;SDS011;60907;53.268;8.764;2023-05-17T07:04:14;8.98;;;0.95;;
72791;SDS011;60907;53.268;8.764;2023-05-17T07:06:39;9.45;;;1.00;;
72791;SDS011;60907;53.268;8.764;2023-05-17T07:09:05;6.07;;;0.98;;
72791;SDS011;60907;53.268;8.764;2023-05-17T07:11:31;9.65;;;1.13;;
72791;SDS011;60907;53.268;8.764;2023-05-17T07:13:56;6.43;;;1.20;;
72791;SDS011;60907;53.268;8.764;2023-05-17T07:16:22;8.25;;;1.38;;
72791;SDS011;60907;53.268;8.764;2023-05-17T07:18:47;8.13;;;1.13;;
72791;SDS011;60907;53.268;8.764;2023-05-17T07:21:13;5.28;;;0.65;;
72791;SDS011;60907;53.268;8.764;2023-05-17T07:23:38;4.40;;;0.75;;
72791;SDS011;60907;53.268;8.764;2023-05-17T07:26:04;5.53;;;1.15;;
72791;SDS011;60907;53.268;8.764;2023-05-17T07:28:29;8.05;;;0.70;;
72791;SDS011;60907;53.268;8.764;2023-05-17T07:30:54;4.38;;;0.80;;
72791;SDS011;60907;53.268;8.764;2023-05-17T07:33:20;6.80;;;0.77;;
72791;SDS011;60907;53.268;8.764;2023-05-17T07:35:45;7.95;;;0.82;;
72791;SDS011;60907;53.268;8.764;2023-05-17T07:38:11;4.88;;;0.55;;
72791;SDS011;60907;53.268;8.764;2023-05-17T07:40:36;4.63;;;0.52;;
72791;SDS011;60907;53.268;8.764;2023-05-17T07:43:02;5.88;;;0.70;;
72791;SDS011;60907;53.268;8.764;2023-05-17T07:45:27;5.18;;;0.73;;
72791;SDS011;60907;53.268;8.764;2023-05-17T07:47:53;5.03;;;0.73;;
72791;SDS011;60907;53.268;8.764;2023-05-17T07:50:18;4.50;;;0.60;;
72791;SDS011;60907;53.268;8.764;2023-05-17T07:52:44;4.50;;;0.65;;
72791;SDS011;60907;53.268;8.764;2023-05-17T07:55:09;4.28;;;1.00;;
72791;SDS011;60907;53.268;8.764;2023-05-17T07:57:35;5.60;;;0.65;;
72791;SDS011;60907;53.268;8.764;2023-05-17T08:00:00;6.13;;;0.43;;
72791;SDS011;60907;53.268;8.764;2023-05-17T08:02:26;4.30;;;0.43;;
72791;SDS011;60907;53.268;8.764;2023-05-17T08:04:51;6.78;;;0.80;;
72791;SDS011;60907;53.268;8.764;2023-05-17T08:07:17;4.07;;;1.00;;
72791;SDS011;60907;53.268;8.764;2023-05-17T08:09:42;5.13;;;1.10;;
72791;SDS011;60907;53.268;8.764;2023-05-17T08:12:09;2.95;;;0.63;;
72791;SDS011;60907;53.268;8.764;2023-05-17T08:14:35;1.60;;;0.57;;
72791;SDS011;60907;53.268;8.764;2023-05-17T08:17:00;4.85;;;0.50;;
72791;SDS011;60907;53.268;8.764;2023-05-17T08:19:26;7.60;;;1.45;;
72791;SDS011;60907;53.268;8.764;2023-05-17T08:21:51;7.35;;;1.45;;
72791;SDS011;60907;53.268;8.764;2023-05-17T08:24:16;8.10;;;1.40;;
72791;SDS011;60907;53.268;8.764;2023-05-17T08:26:42;4.35;;;0.63;;
72791;SDS011;60907;53.268;8.764;2023-05-17T08:29:07;5.25;;;0.95;;
72791;SDS011;60907;53.268;8.764;2023-05-17T08:31:33;3.85;;;0.57;;
72791;SDS011;60907;53.268;8.764;2023-05-17T08:33:58;5.40;;;1.20;;
72791;SDS011;60907;53.268;8.764;2023-05-17T08:36:24;3.65;;;0.60;;
72791;SDS011;60907;53.268;8.764;2023-05-17T08:38:49;5.80;;;0.63;;
72791;SDS011;60907;53.268;8.764;2023-05-17T08:41:16;3.60;;;0.73;;
72791;SDS011;60907;53.268;8.764;2023-05-17T08:43:42;8.95;;;1.08;;
72791;SDS011;60907;53.268;8.764;2023-05-17T08:46:08;2.80;;;0.70;;
72791;SDS011;60907;53.268;8.764;2023-05-17T08:48:34;4.55;;;0.45;;
72791;SDS011;60907;53.268;8.764;2023-05-17T08:51:05;6.07;;;0.85;;
72791;SDS011;60907;53.268;8.764;2023-05-17T08:53:31;8.13;;;1.63;;
72791;SDS011;60907;53.268;8.764;2023-05-17T08:55:59;4.13;;;0.90;;
72791;SDS011;60907;53.268;8.764;2023-05-17T08:58:26;5.15;;;1.23;;
72791;SDS011;60907;53.268;8.764;2023-05-17T09:00:55;4.55;;;0.70;;
72791;SDS011;60907;53.268;8.764;2023-05-17T09:03:22;9.82;;;1.75;;
72791;SDS011;60907;53.268;8.764;2023-05-17T09:05:51;6.85;;;0.70;;
72791;SDS011;60907;53.268;8.764;2023-05-17T09:08:20;5.35;;;0.63;;
72791;SDS011;60907;53.268;8.764;2023-05-17T09:10:46;4.97;;;0.77;;
72791;SDS011;60907;53.268;8.764;2023-05-17T09:13:12;4.78;;;0.65;;
72791;SDS011;60907;53.268;8.764;2023-05-17T09:15:40;4.43;;;0.90;;
72791;SDS011;60907;53.268;8.764;2023-05-17T09:18:11;3.28;;;0.70;;
72791;SDS011;60907;53.268;8.764;2023-05-17T09:20:37;5.88;;;0.77;;
72791;SDS011;60907;53.268;8.764;2023-05-17T09:23:03;7.40;;;0.80;;
72791;SDS011;60907;53.268;8.764;2023-05-17T09:25:30;7.90;;;1.10;;
72791;SDS011;60907;53.268;8.764;2023-05-17T09:28:03;5.82;;;0.73;;
72791;SDS011;60907;53.268;8.764;2023-05-17T09:30:32;5.05;;;0.77;;
72791;SDS011;60907;53.268;8.764;2023-05-17T09:33:08;4.43;;;0.80;;
72791;SDS011;60907;53.268;8.764;2023-05-17T09:35:35;4.78;;;0.75;;
72791;SDS011;60907;53.268;8.764;2023-05-17T09:38:04;6.10;;;1.23;;
72791;SDS011;60907;53.268;8.764;2023-05-17T09:40:40;4.15;;;0.60;;
72791;SDS011;60907;53.268;8.764;2023-05-17T09:43:10;5.43;;;0.70;;
72791;SDS011;60907;53.268;8.764;2023-05-17T09:45:36;3.67;;;1.00;;
72791;SDS011;60907;53.268;8.764;2023-05-17T09:48:17;5.22;;;0.80;;
72791;SDS011;60907;53.268;8.764;2023-05-17T09:50:46;2.67;;;0.73;;
72791;SDS011;60907;53.268;8.764;2023-05-17T09:55:51;3.92;;;0.70;;
72791;SDS011;60907;53.268;8.764;2023-05-17T09:58:18;5.30;;;0.85;;
72791;SDS011;60907;53.268;8.764;2023-05-17T10:00:44;3.35;;;0.70;;
72791;SDS011;60907;53.268;8.764;2023-05-17T10:03:14;5.47;;;0.75;;
72791;SDS011;60907;53.268;8.764;2023-05-17T10:05:40;7.40;;;1.00;;
72791;SDS011;60907;53.268;8.764;2023-05-17T10:08:08;7.82;;;1.00;;
72791;SDS011;60907;53.268;8.764;2023-05-17T10:13:00;3.05;;;0.45;;
72791;SDS011;60907;53.268;8.764;2023-05-17T10:15:28;4.50;;;1.20;;
72791;SDS011;60907;53.268;8.764;2023-05-17T10:17:54;4.95;;;0.90;;
72791;SDS011;60907;53.268;8.764;2023-05-17T10:20:20;6.07;;;1.15;;
72791;SDS011;60907;53.268;8.764;2023-05-17T10:22:45;8.13;;;1.00;;
72791;SDS011;60907;53.268;8.764;2023-05-17T10:25:11;8.52;;;1.50;;
72791;SDS011;60907;53.268;8.764;2023-05-17T10:27:37;7.60;;;1.17;;
72791;SDS011;60907;53.268;8.764;2023-05-17T10:30:03;5.47;;;1.27;;
72791;SDS011;60907;53.268;8.764;2023-05-17T10:32:30;9.35;;;1.15;;
72791;SDS011;60907;53.268;8.764;2023-05-17T10:34:55;5.50;;;0.88;;
72791;SDS011;60907;53.268;8.764;2023-05-17T10:37:21;5.00;;;0.57;;
72791;SDS011;60907;53.268;8.764;2023-05-17T10:39:47;9.15;;;1.38;;
72791;SDS011;60907;53.268;8.764;2023-05-17T10:42:15;7.60;;;0.77;;
72791;SDS011;60907;53.268;8.764;2023-05-17T10:44:42;6.55;;;1.23;;
72791;SDS011;60907;53.268;8.764;2023-05-17T10:47:08;10.00;;;0.90;;
72791;SDS011;60907;53.268;8.764;2023-05-17T10:49:35;5.40;;;0.80;;
72791;SDS011;60907;53.268;8.764;2023-05-17T10:54:56;3.35;;;0.73;;
72791;SDS011;60907;53.268;8.764;2023-05-17T10:59:59;5.10;;;0.70;;
72791;SDS011;60907;53.268;8.764;2023-05-17T11:02:27;5.07;;;0.73;;
72791;SDS011;60907;53.268;8.764;2023-05-17T11:04:53;3.53;;;0.93;;
72791;SDS011;60907;53.268;8.764;2023-05-17T11:07:25;4.03;;;0.77;;
72791;SDS011;60907;53.268;8.764;2023-05-17T11:12:37;2.53;;;0.77;;
72791;SDS011;60907;53.268;8.764;2023-05-17T11:15:24;6.35;;;0.88;;
72791;SDS011;60907;53.268;8.764;2023-05-17T11:17:50;6.90;;;0.95;;
72791;SDS011;60907;53.268;8.764;2023-05-17T11:22:56;4.47;;;0.93;;
72791;SDS011;60907;53.268;8.764;2023-05-17T11:25:26;7.45;;;1.08;;
72791;SDS011;60907;53.268;8.764;2023-05-17T11:27:52;4.13;;;0.60;;
72791;SDS011;60907;53.268;8.764;2023-05-17T11:30:22;4.18;;;0.60;;
72791;SDS011;60907;53.268;8.764;2023-05-17T11:32:59;4.07;;;1.00;;
72791;SDS011;60907;53.268;8.764;2023-05-17T11:35:27;7.47;;;0.95;;
72791;SDS011;60907;53.268;8.764;2023-05-17T11:38:18;5.25;;;1.05;;
72791;SDS011;60907;53.268;8.764;2023-05-17T11:40:44;7.20;;;0.90;;
72791;SDS011;60907;53.268;8.764;2023-05-17T11:45:53;4.35;;;0.85;;
72791;SDS011;60907;53.268;8.764;2023-05-17T11:48:22;3.05;;;0.93;;
72791;SDS011;60907;53.268;8.764;2023-05-17T11:50:48;3.00;;;0.77;;
72791;SDS011;60907;53.268;8.764;2023-05-17T11:53:15;6.80;;;0.85;;
72791;SDS011;60907;53.268;8.764;2023-05-17T11:55:41;4.57;;;0.98;;
72791;SDS011;60907;53.268;8.764;2023-05-17T11:58:09;6.85;;;1.08;;
72791;SDS011;60907;53.268;8.764;2023-05-17T12:00:36;3.53;;;0.80;;
72791;SDS011;60907;53.268;8.764;2023-05-17T12:03:19;4.63;;;0.85;;
72791;SDS011;60907;53.268;8.764;2023-05-17T12:05:45;4.55;;;0.77;;
72791;SDS011;60907;53.268;8.764;2023-05-17T12:08:14;4.03;;;0.98;;
72791;SDS011;60907;53.268;8.764;2023-05-17T12:10:43;5.82;;;0.90;;
72791;SDS011;60907;53.268;8.764;2023-05-17T12:13:18;3.90;;;0.80;;
72791;SDS011;60907;53.268;8.764;2023-05-17T12:15:47;2.95;;;0.70;;
72791;SDS011;60907;53.268;8.764;2023-05-17T12:18:36;5.72;;;0.70;;
72791;SDS011;60907;53.268;8.764;2023-05-17T12:21:03;5.43;;;0.85;;
72791;SDS011;60907;53.268;8.764;2023-05-17T12:23:32;5.88;;;1.10;;
72791;SDS011;60907;53.268;8.764;2023-05-17T12:26:08;4.00;;;0.90;;
72791;SDS011;60907;53.268;8.764;2023-05-17T12:28:36;3.78;;;0.80;;
72791;SDS011;60907;53.268;8.764;2023-05-17T12:31:03;5.03;;;1.33;;
72791;SDS011;60907;53.268;8.764;2023-05-17T12:33:33;8.88;;;1.27;;
72791;SDS011;60907;53.268;8.764;2023-05-17T12:36:00;8.00;;;0.98;;
72791;SDS011;60907;53.268;8.764;2023-05-17T12:38:28;8.02;;;1.08;;
72791;SDS011;60907;53.268;8.764;2023-05-17T12:41:00;6.75;;;1.00;;
72791;SDS011;60907;53.268;8.764;2023-05-17T12:43:27;2.38;;;0.85;;
72791;SDS011;60907;53.268;8.764;2023-05-17T12:46:00;3.72;;;0.80;;
72791;SDS011;60907;53.268;8.764;2023-05-17T12:48:47;4.65;;;0.80;;
72791;SDS011;60907;53.268;8.764;2023-05-17T12:51:15;4.03;;;0.80;;
72791;SDS011;60907;53.268;8.764;2023-05-17T12:53:48;4.40;;;0.73;;
72791;SDS011;60907;53.268;8.764;2023-05-17T12:56:15;3.00;;;0.77;;
72791;SDS011;60907;53.268;8.764;2023-05-17T12:58:41;4.22;;;0.73;;
72791;SDS011;60907;53.268;8.764;2023-05-17T13:01:07;6.55;;;1.08;;
72791;SDS011;60907;53.268;8.764;2023-05-17T13:03:37;4.65;;;0.70;;
72791;SDS011;60907;53.268;8.764;2023-05-17T13:06:03;5.60;;;1.20;;
72791;SDS011;60907;53.268;8.764;2023-05-17T13:08:31;4.03;;;1.15;;
72791;SDS011;60907;53.268;8.764;2023-05-17T13:11:13;6.05;;;0.82;;
72791;SDS011;60907;53.268;8.764;2023-05-17T13:13:39;3.47;;;0.80;;
72791;SDS011;60907;53.268;8.764;2023-05-17T13:16:05;5.80;;;0.82;;
72791;SDS011;60907;53.268;8.764;2023-05-17T13:18:45;6.90;;;0.82;;
72791;SDS011;60907;53.268;8.764;2023-05-17T13:21:11;6.28;;;1.10;;
72791;SDS011;60907;53.268;8.764;2023-05-17T13:23:41;5.88;;;0.80;;
72791;SDS011;60907;53.268;8.764;2023-05-17T13:26:10;2.38;;;1.00;;
72791;SDS011;60907;53.268;8.764;2023-05-17T13:28:37;3.63;;;0.60;;
72791;SDS011;60907;53.268;8.764;2023-05-17T13:31:03;4.95;;;0.90;;
72791;SDS011;60907;53.268;8.764;2023-05-17T13:33:28;8.18;;;1.02;;
72791;SDS011;60907;53.268;8.764;2023-05-17T13:35:55;3.35;;;0.70;;
72791;SDS011;60907;53.268;8.764;2023-05-17T13:38:20;6.50;;;1.35;;
72791;SDS011;60907;53.268;8.764;2023-05-17T13:40:46;4.03;;;0.80;;
72791;SDS011;60907;53.268;8.764;2023-05-17T13:43:11;6.28;;;0.93;;
72791;SDS011;60907;53.268;8.764;2023-05-17T13:45:37;4.53;;;1.00;;
72791;SDS011;60907;53.268;8.764;2023-05-17T13:48:02;3.53;;;0.70;;
72791;SDS011;60907;53.268;8.764;2023-05-17T13:50:27;4.28;;;1.13;;
72791;SDS011;60907;53.268;8.764;2023-05-17T13:52:53;5.00;;;1.08;;
72791;SDS011;60907;53.268;8.764;2023-05-17T13:55:19;8.52;;;1.02;;
72791;SDS011;60907;53.268;8.764;2023-05-17T13:57:44;6.53;;;1.02;;
72791;SDS011;60907;53.268;8.764;2023-05-17T14:00:10;2.75;;;0.80;;
72791;SDS011;60907;53.268;8.764;2023-05-17T14:02:36;4.20;;;1.05;;
72791;SDS011;60907;53.268;8.764;2023-05-17T14:05:02;4.93;;;0.80;;
72791;SDS011;60907;53.268;8.764;2023-05-17T14:07:28;5.40;;;1.35;;
72791;SDS011;60907;53.268;8.764;2023-05-17T14:09:54;5.22;;;0.65;;
72791;SDS011;60907;53.268;8.764;2023-05-17T14:12:19;6.20;;;0.90;;
72791;SDS011;60907;53.268;8.764;2023-05-17T14:14:45;4.50;;;0.93;;
72791;SDS011;60907;53.268;8.764;2023-05-17T14:17:10;5.07;;;0.93;;
72791;SDS011;60907;53.268;8.764;2023-05-17T14:19:36;4.53;;;1.02;;
72791;SDS011;60907;53.268;8.764;2023-05-17T14:22:01;5.82;;;1.00;;
72791;SDS011;60907;53.268;8.764;2023-05-17T14:24:27;4.70;;;0.88;;
72791;SDS011;60907;53.268;8.764;2023-05-17T14:26:53;4.05;;;0.93;;
72791;SDS011;60907;53.268;8.764;2023-05-17T14:29:18;5.50;;;0.90;;
72791;SDS011;60907;53.268;8.764;2023-05-17T14:31:43;5.07;;;1.10;;
72791;SDS011;60907;53.268;8.764;2023-05-17T14:34:09;5.45;;;0.90;;
72791;SDS011;60907;53.268;8.764;2023-05-17T14:36:35;7.97;;;1.00;;
72791;SDS011;60907;53.268;8.764;2023-05-17T14:39:02;3.45;;;0.90;;
72791;SDS011;60907;53.268;8.764;2023-05-17T14:41:28;4.22;;;0.77;;
72791;SDS011;60907;53.268;8.764;2023-05-17T14:43:53;5.68;;;1.02;;
72791;SDS011;60907;53.268;8.764;2023-05-17T14:46:19;6.82;;;2.42;;
72791;SDS011;60907;53.268;8.764;2023-05-17T14:48:45;7.65;;;1.00;;
72791;SDS011;60907;53.268;8.764;2023-05-17T14:51:10;6.00;;;1.38;;
72791;SDS011;60907;53.268;8.764;2023-05-17T14:53:36;7.03;;;1.67;;
72791;SDS011;60907;53.268;8.764;2023-05-17T14:56:01;12.27;;;4.38;;
72791;SDS011;60907;53.268;8.764;2023-05-17T14:58:27;11.85;;;5.43;;
72791;SDS011;60907;53.268;8.764;2023-05-17T15:00:52;3.47;;;1.02;;
72791;SDS011;60907;53.268;8.764;2023-05-17T15:03:22;6.28;;;1.35;;
72791;SDS011;60907;53.268;8.764;2023-05-17T15:05:54;5.80;;;2.20;;
72791;SDS011;60907;53.268;8.764;2023-05-17T15:08:20;5.65;;;1.70;;
72791;SDS011;60907;53.268;8.764;2023-05-17T15:10:46;9.10;;;1.48;;
72791;SDS011;60907;53.268;8.764;2023-05-17T15:13:13;7.00;;;1.65;;
72791;SDS011;60907;53.268;8.764;2023-05-17T15:15:38;5.03;;;2.05;;
72791;SDS011;60907;53.268;8.764;2023-05-17T15:18:04;6.57;;;1.85;;
72791;SDS011;60907;53.268;8.764;2023-05-17T15:20:30;5.50;;;2.03;;
72791;SDS011;60907;53.268;8.764;2023-05-17T15:22:56;6.95;;;2.63;;